sensor_id;sensor_type;location;lat;lon;timestamp;P1;durP1;ratioP1;P2;durP2;ratioP2
38332;SDS011;25748;46.670;14.272;2022-09-01T00:00:32;5.03;;;2.72;;
38332;SDS011;25748;46.670;14.272;2022-09-01T00:02:57;5.82;;;2.65;;
38332;SDS011;25748;46.670;14.272;2022-09-01T00:05:23;5.15;;;2.80;;
38332;SDS011;25748;46.670;14.272;2022-09-01T00:07:49;4.72;;;2.60;;
38332;SDS011;25748;46.670;14.272;2022-09-01T00:10:15;3.65;;;2.45;;
38332;SDS011;25748;46.670;14.272;2022-09-01T00:12:41;3.83;;;2.35;;
38332;SDS011;25748;46.670;14.272;2022-09-01T00:15:08;4.40;;;2.22;;
38332;SDS011;25748;46.670;14.272;2022-09-01T00:17:35;3.55;;;2.50;;
38332;SDS011;25748;46.670;14.272;2022-09-01T00:20:01;3.20;;;2.05;;
38332;SDS011;25748;46.670;14.272;2022-09-01T00:22:27;4.40;;;2.03;;
38332;SDS011;25748;46.670;14.272;2022-09-01T00:24:53;3.90;;;2.17;;
38332;SDS011;25748;46.670;14.272;2022-09-01T00:27:20;3.85;;;2.30;;
38332;SDS011;25748;46.670;14.272;2022-09-01T00:29:46;3.58;;;1.60;;
38332;SDS011;25748;46.670;14.272;2022-09-01T00:32:12;3.58;;;2.00;;
38332;SDS011;25748;46.670;14.272;2022-09-01T00:34:38;2.67;;;2.00;;
38332;SDS011;25748;46.670;14.272;2022-09-01T00:37:04;3.85;;;2.33;;
38332;SDS011;25748;46.670;14.272;2022-09-01T00:39:30;3.65;;;2.08;;
38332;SDS011;25748;46.670;14.272;2022-09-01T00:41:56;6.80;;;2.28;;
38332;SDS011;25748;46.670;14.272;2022-09-01T00:44:23;5.40;;;2.40;;
38332;SDS011;25748;46.670;14.272;2022-09-01T00:46:51;2.75;;;1.80;;
38332;SDS011;25748;46.670;14.272;2022-09-01T00:52:07;7.28;;;2.20;;
38332;SDS011;25748;46.670;14.272;2022-09-01T00:54:39;3.65;;;2.38;;
38332;SDS011;25748;46.670;14.272;2022-09-01T00:57:08;4.83;;;2.57;;
38332;SDS011;25748;46.670;14.272;2022-09-01T00:59:37;4.18;;;2.58;;
38332;SDS011;25748;46.670;14.272;2022-09-01T01:02:07;3.50;;;2.20;;
38332;SDS011;25748;46.670;14.272;2022-09-01T01:04:34;4.22;;;2.17;;
38332;SDS011;25748;46.670;14.272;2022-09-01T01:07:01;2.60;;;1.80;;
38332;SDS011;25748;46.670;14.272;2022-09-01T01:09:32;5.07;;;2.72;;
38332;SDS011;25748;46.670;14.272;2022-09-01T01:12:00;3.75;;;2.40;;
38332;SDS011;25748;46.670;14.272;2022-09-01T01:14:28;3.72;;;2.45;;
38332;SDS011;25748;46.670;14.272;2022-09-01T01:16:56;5.22;;;2.17;;
38332;SDS011;25748;46.670;14.272;2022-09-01T01:22:23;4.90;;;1.90;;
38332;SDS011;25748;46.670;14.272;2022-09-01T01:25:14;3.17;;;1.95;;
38332;SDS011;25748;46.670;14.272;2022-09-01T01:27:42;4.07;;;1.92;;
38332;SDS011;25748;46.670;14.272;2022-09-01T01:30:08;2.65;;;1.90;;
38332;SDS011;25748;46.670;14.272;2022-09-01T01:32:36;2.67;;;1.40;;
38332;SDS011;25748;46.670;14.272;2022-09-01T01:35:07;2.55;;;1.80;;
38332;SDS011;25748;46.670;14.272;2022-09-01T01:37:39;5.03;;;1.42;;
38332;SDS011;25748;46.670;14.272;2022-09-01T01:40:10;3.15;;;1.52;;
38332;SDS011;25748;46.670;14.272;2022-09-01T01:42:43;2.83;;;1.50;;
38332;SDS011;25748;46.670;14.272;2022-09-01T01:45:11;4.75;;;1.20;;
38332;SDS011;25748;46.670;14.272;2022-09-01T01:47:41;1.87;;;1.07;;
38332;SDS011;25748;46.670;14.272;2022-09-01T01:50:17;2.20;;;1.38;;
38332;SDS011;25748;46.670;14.272;2022-09-01T01:52:44;2.78;;;1.25;;
38332;SDS011;25748;46.670;14.272;2022-09-01T01:55:11;1.65;;;1.20;;
38332;SDS011;25748;46.670;14.272;2022-09-01T01:57:38;2.55;;;1.55;;
38332;SDS011;25748;46.670;14.272;2022-09-01T02:00:09;4.80;;;2.10;;
38332;SDS011;25748;46.670;14.272;2022-09-01T02:02:36;2.95;;;1.80;;
38332;SDS011;25748;46.670;14.272;2022-09-01T02:05:03;4.78;;;1.65;;
38332;SDS011;25748;46.670;14.272;2022-09-01T02:07:30;3.00;;;1.83;;
38332;SDS011;25748;46.670;14.272;2022-09-01T02:09:56;5.60;;;2.25;;
38332;SDS011;25748;46.670;14.272;2022-09-01T02:12:22;5.50;;;2.25;;
38332;SDS011;25748;46.670;14.272;2022-09-01T02:14:49;6.47;;;2.50;;
38332;SDS011;25748;46.670;14.272;2022-09-01T02:17:14;4.38;;;2.20;;
38332;SDS011;25748;46.670;14.272;2022-09-01T02:19:40;4.03;;;3.03;;
38332;SDS011;25748;46.670;14.272;2022-09-01T02:22:07;4.50;;;2.75;;
38332;SDS011;25748;46.670;14.272;2022-09-01T02:24:34;4.53;;;2.45;;
38332;SDS011;25748;46.670;14.272;2022-09-01T02:27:01;4.60;;;3.05;;
38332;SDS011;25748;46.670;14.272;2022-09-01T02:29:27;6.28;;;3.05;;
38332;SDS011;25748;46.670;14.272;2022-09-01T02:31:54;6.28;;;3.05;;
38332;SDS011;25748;46.670;14.272;2022-09-01T02:34:21;5.60;;;2.60;;
38332;SDS011;25748;46.670;14.272;2022-09-01T02:36:49;3.95;;;2.65;;
38332;SDS011;25748;46.670;14.272;2022-09-01T02:39:17;5.30;;;2.60;;
38332;SDS011;25748;46.670;14.272;2022-09-01T02:41:45;4.15;;;2.70;;
38332;SDS011;25748;46.670;14.272;2022-09-01T02:44:11;4.18;;;2.70;;
38332;SDS011;25748;46.670;14.272;2022-09-01T02:46:38;5.28;;;2.90;;
38332;SDS011;25748;46.670;14.272;2022-09-01T02:49:25;6.10;;;3.10;;
38332;SDS011;25748;46.670;14.272;2022-09-01T02:51:52;4.15;;;2.70;;
38332;SDS011;25748;46.670;14.272;2022-09-01T02:54:22;4.75;;;3.08;;
38332;SDS011;25748;46.670;14.272;2022-09-01T02:56:48;5.35;;;3.10;;
38332;SDS011;25748;46.670;14.272;2022-09-01T02:59:18;5.28;;;2.65;;
38332;SDS011;25748;46.670;14.272;2022-09-01T03:01:47;4.60;;;3.10;;
38332;SDS011;25748;46.670;14.272;2022-09-01T03:04:14;5.05;;;3.05;;
38332;SDS011;25748;46.670;14.272;2022-09-01T03:06:40;5.10;;;2.83;;
38332;SDS011;25748;46.670;14.272;2022-09-01T03:09:11;5.75;;;3.50;;
38332;SDS011;25748;46.670;14.272;2022-09-01T03:11:40;5.32;;;3.15;;
38332;SDS011;25748;46.670;14.272;2022-09-01T03:14:07;6.03;;;3.30;;
38332;SDS011;25748;46.670;14.272;2022-09-01T03:16:33;5.20;;;3.25;;
38332;SDS011;25748;46.670;14.272;2022-09-01T03:19:00;5.90;;;3.10;;
38332;SDS011;25748;46.670;14.272;2022-09-01T03:21:27;6.35;;;3.53;;
38332;SDS011;25748;46.670;14.272;2022-09-01T03:23:55;3.72;;;2.60;;
38332;SDS011;25748;46.670;14.272;2022-09-01T03:26:22;3.40;;;2.15;;
38332;SDS011;25748;46.670;14.272;2022-09-01T03:28:48;4.35;;;2.42;;
38332;SDS011;25748;46.670;14.272;2022-09-01T03:31:16;3.95;;;2.60;;
38332;SDS011;25748;46.670;14.272;2022-09-01T03:33:43;3.83;;;1.92;;
38332;SDS011;25748;46.670;14.272;2022-09-01T03:36:10;3.10;;;1.77;;
38332;SDS011;25748;46.670;14.272;2022-09-01T03:38:43;2.83;;;1.80;;
38332;SDS011;25748;46.670;14.272;2022-09-01T03:41:13;2.85;;;1.90;;
38332;SDS011;25748;46.670;14.272;2022-09-01T03:43:41;4.03;;;1.45;;
38332;SDS011;25748;46.670;14.272;2022-09-01T03:46:08;3.85;;;1.48;;
38332;SDS011;25748;46.670;14.272;2022-09-01T03:48:35;3.90;;;1.63;;
38332;SDS011;25748;46.670;14.272;2022-09-01T03:51:00;4.53;;;1.70;;
38332;SDS011;25748;46.670;14.272;2022-09-01T03:53:27;4.07;;;1.70;;
38332;SDS011;25748;46.670;14.272;2022-09-01T03:55:55;3.67;;;1.67;;
38332;SDS011;25748;46.670;14.272;2022-09-01T03:58:21;5.20;;;1.92;;
38332;SDS011;25748;46.670;14.272;2022-09-01T04:00:50;2.38;;;1.58;;
38332;SDS011;25748;46.670;14.272;2022-09-01T04:03:19;2.80;;;1.52;;
38332;SDS011;25748;46.670;14.272;2022-09-01T04:05:50;3.90;;;2.03;;
38332;SDS011;25748;46.670;14.272;2022-09-01T04:08:19;5.78;;;1.95;;
38332;SDS011;25748;46.670;14.272;2022-09-01T04:13:17;1.88;;;1.30;;
38332;SDS011;25748;46.670;14.272;2022-09-01T04:15:48;1.98;;;1.17;;
38332;SDS011;25748;46.670;14.272;2022-09-01T04:18:14;2.08;;;1.10;;
38332;SDS011;25748;46.670;14.272;2022-09-01T04:20:45;2.15;;;1.35;;
38332;SDS011;25748;46.670;14.272;2022-09-01T04:23:23;1.88;;;1.27;;
38332;SDS011;25748;46.670;14.272;2022-09-01T04:26:00;1.85;;;1.10;;
38332;SDS011;25748;46.670;14.272;2022-09-01T04:28:35;3.40;;;1.58;;
38332;SDS011;25748;46.670;14.272;2022-09-01T04:31:06;2.55;;;1.42;;
38332;SDS011;25748;46.670;14.272;2022-09-01T04:33:34;2.78;;;1.60;;
38332;SDS011;25748;46.670;14.272;2022-09-01T04:36:05;2.97;;;1.65;;
38332;SDS011;25748;46.670;14.272;2022-09-01T04:38:38;3.22;;;1.70;;
38332;SDS011;25748;46.670;14.272;2022-09-01T04:41:04;2.70;;;1.63;;
38332;SDS011;25748;46.670;14.272;2022-09-01T04:43:31;2.80;;;1.60;;
38332;SDS011;25748;46.670;14.272;2022-09-01T04:45:57;1.80;;;1.13;;
38332;SDS011;25748;46.670;14.272;2022-09-01T04:48:23;1.90;;;1.23;;
38332;SDS011;25748;46.670;14.272;2022-09-01T04:50:49;2.38;;;1.35;;
38332;SDS011;25748;46.670;14.272;2022-09-01T04:53:16;4.00;;;1.35;;
38332;SDS011;25748;46.670;14.272;2022-09-01T04:55:43;6.85;;;1.40;;
38332;SDS011;25748;46.670;14.272;2022-09-01T04:58:11;1.98;;;1.30;;
38332;SDS011;25748;46.670;14.272;2022-09-01T05:00:41;3.13;;;1.08;;
38332;SDS011;25748;46.670;14.272;2022-09-01T05:03:12;2.30;;;1.30;;
38332;SDS011;25748;46.670;14.272;2022-09-01T05:05:42;2.22;;;1.40;;
38332;SDS011;25748;46.670;14.272;2022-09-01T05:08:10;1.92;;;1.30;;
38332;SDS011;25748;46.670;14.272;2022-09-01T05:10:39;2.47;;;1.23;;
38332;SDS011;25748;46.670;14.272;2022-09-01T05:13:11;2.17;;;1.35;;
38332;SDS011;25748;46.670;14.272;2022-09-01T05:15:39;2.72;;;1.50;;
38332;SDS011;25748;46.670;14.272;2022-09-01T05:18:16;2.60;;;1.48;;
38332;SDS011;25748;46.670;14.272;2022-09-01T05:20:48;1.67;;;1.30;;
38332;SDS011;25748;46.670;14.272;2022-09-01T05:23:14;2.35;;;1.33;;
38332;SDS011;25748;46.670;14.272;2022-09-01T05:25:43;2.25;;;1.55;;
38332;SDS011;25748;46.670;14.272;2022-09-01T05:28:13;2.00;;;1.23;;
38332;SDS011;25748;46.670;14.272;2022-09-01T05:30:42;1.80;;;1.23;;
38332;SDS011;25748;46.670;14.272;2022-09-01T05:33:10;2.03;;;1.15;;
38332;SDS011;25748;46.670;14.272;2022-09-01T05:35:40;1.83;;;1.25;;
38332;SDS011;25748;46.670;14.272;2022-09-01T05:38:09;2.13;;;1.55;;
38332;SDS011;25748;46.670;14.272;2022-09-01T05:40:41;2.17;;;1.27;;
38332;SDS011;25748;46.670;14.272;2022-09-01T05:43:12;1.80;;;1.33;;
38332;SDS011;25748;46.670;14.272;2022-09-01T05:45:41;3.72;;;1.15;;
38332;SDS011;25748;46.670;14.272;2022-09-01T05:48:11;2.70;;;1.35;;
38332;SDS011;25748;46.670;14.272;2022-09-01T05:50:40;3.95;;;1.55;;
38332;SDS011;25748;46.670;14.272;2022-09-01T05:53:07;2.60;;;0.90;;
38332;SDS011;25748;46.670;14.272;2022-09-01T05:55:46;1.73;;;1.30;;
38332;SDS011;25748;46.670;14.272;2022-09-01T05:58:13;4.05;;;1.45;;
38332;SDS011;25748;46.670;14.272;2022-09-01T06:00:41;2.13;;;1.42;;
38332;SDS011;25748;46.670;14.272;2022-09-01T06:03:10;2.53;;;1.27;;
38332;SDS011;25748;46.670;14.272;2022-09-01T06:05:36;2.35;;;1.48;;
38332;SDS011;25748;46.670;14.272;2022-09-01T06:08:02;1.77;;;1.30;;
38332;SDS011;25748;46.670;14.272;2022-09-01T06:10:30;5.13;;;1.50;;
38332;SDS011;25748;46.670;14.272;2022-09-01T06:12:56;1.98;;;1.40;;
38332;SDS011;25748;46.670;14.272;2022-09-01T06:15:26;4.05;;;1.55;;
38332;SDS011;25748;46.670;14.272;2022-09-01T06:17:56;2.05;;;1.50;;
38332;SDS011;25748;46.670;14.272;2022-09-01T06:20:23;2.92;;;1.23;;
38332;SDS011;25748;46.670;14.272;2022-09-01T06:22:50;2.45;;;1.08;;
38332;SDS011;25748;46.670;14.272;2022-09-01T06:25:19;2.83;;;1.52;;
38332;SDS011;25748;46.670;14.272;2022-09-01T06:27:45;3.95;;;1.52;;
38332;SDS011;25748;46.670;14.272;2022-09-01T06:30:12;2.60;;;1.58;;
38332;SDS011;25748;46.670;14.272;2022-09-01T06:32:42;2.50;;;1.20;;
38332;SDS011;25748;46.670;14.272;2022-09-01T06:35:09;3.65;;;1.60;;
38332;SDS011;25748;46.670;14.272;2022-09-01T06:37:36;2.28;;;1.13;;
38332;SDS011;25748;46.670;14.272;2022-09-01T06:40:03;2.08;;;1.33;;
38332;SDS011;25748;46.670;14.272;2022-09-01T06:42:29;3.85;;;1.65;;
38332;SDS011;25748;46.670;14.272;2022-09-01T06:44:59;2.20;;;1.45;;
38332;SDS011;25748;46.670;14.272;2022-09-01T06:47:26;1.92;;;1.13;;
38332;SDS011;25748;46.670;14.272;2022-09-01T06:49:53;3.90;;;1.90;;
38332;SDS011;25748;46.670;14.272;2022-09-01T06:52:22;4.32;;;1.90;;
38332;SDS011;25748;46.670;14.272;2022-09-01T06:54:49;2.95;;;1.50;;
38332;SDS011;25748;46.670;14.272;2022-09-01T06:57:17;2.50;;;1.60;;
38332;SDS011;25748;46.670;14.272;2022-09-01T06:59:43;2.33;;;1.60;;
38332;SDS011;25748;46.670;14.272;2022-09-01T07:02:09;4.55;;;1.38;;
38332;SDS011;25748;46.670;14.272;2022-09-01T07:04:40;5.80;;;1.38;;
38332;SDS011;25748;46.670;14.272;2022-09-01T07:07:07;2.90;;;1.95;;
38332;SDS011;25748;46.670;14.272;2022-09-01T07:09:35;2.95;;;1.70;;
38332;SDS011;25748;46.670;14.272;2022-09-01T07:12:01;2.13;;;1.55;;
38332;SDS011;25748;46.670;14.272;2022-09-01T07:14:28;3.90;;;1.85;;
38332;SDS011;25748;46.670;14.272;2022-09-01T07:16:54;3.70;;;1.60;;
38332;SDS011;25748;46.670;14.272;2022-09-01T07:19:22;3.75;;;1.50;;
38332;SDS011;25748;46.670;14.272;2022-09-01T07:21:50;1.88;;;1.30;;
38332;SDS011;25748;46.670;14.272;2022-09-01T07:24:16;2.95;;;1.98;;
38332;SDS011;25748;46.670;14.272;2022-09-01T07:26:44;2.38;;;1.40;;
38332;SDS011;25748;46.670;14.272;2022-09-01T07:29:14;3.03;;;1.50;;
38332;SDS011;25748;46.670;14.272;2022-09-01T07:31:41;2.78;;;1.75;;
38332;SDS011;25748;46.670;14.272;2022-09-01T07:34:09;3.22;;;1.70;;
38332;SDS011;25748;46.670;14.272;2022-09-01T07:36:40;2.50;;;1.75;;
38332;SDS011;25748;46.670;14.272;2022-09-01T07:39:07;2.08;;;1.48;;
38332;SDS011;25748;46.670;14.272;2022-09-01T07:41:34;3.28;;;1.90;;
38332;SDS011;25748;46.670;14.272;2022-09-01T07:44:01;3.83;;;1.88;;
38332;SDS011;25748;46.670;14.272;2022-09-01T07:46:29;3.40;;;1.73;;
38332;SDS011;25748;46.670;14.272;2022-09-01T07:48:56;2.20;;;1.42;;
38332;SDS011;25748;46.670;14.272;2022-09-01T07:51:24;4.32;;;1.50;;
38332;SDS011;25748;46.670;14.272;2022-09-01T07:53:51;2.88;;;1.70;;
38332;SDS011;25748;46.670;14.272;2022-09-01T07:56:18;7.07;;;1.58;;
38332;SDS011;25748;46.670;14.272;2022-09-01T07:58:45;4.10;;;1.90;;
38332;SDS011;25748;46.670;14.272;2022-09-01T08:01:30;2.60;;;1.80;;
38332;SDS011;25748;46.670;14.272;2022-09-01T08:03:57;3.80;;;1.80;;
38332;SDS011;25748;46.670;14.272;2022-09-01T08:06:26;3.40;;;1.70;;
38332;SDS011;25748;46.670;14.272;2022-09-01T08:08:53;2.70;;;1.70;;
38332;SDS011;25748;46.670;14.272;2022-09-01T08:11:22;2.40;;;1.85;;
38332;SDS011;25748;46.670;14.272;2022-09-01T08:13:51;1.73;;;1.30;;
38332;SDS011;25748;46.670;14.272;2022-09-01T08:16:17;4.05;;;1.60;;
38332;SDS011;25748;46.670;14.272;2022-09-01T08:18:44;1.95;;;1.33;;
38332;SDS011;25748;46.670;14.272;2022-09-01T08:21:12;2.35;;;1.75;;
38332;SDS011;25748;46.670;14.272;2022-09-01T08:23:39;1.92;;;1.20;;
38332;SDS011;25748;46.670;14.272;2022-09-01T08:26:06;2.33;;;1.73;;
38332;SDS011;25748;46.670;14.272;2022-09-01T08:28:36;2.55;;;1.60;;
38332;SDS011;25748;46.670;14.272;2022-09-01T08:31:07;2.47;;;1.30;;
38332;SDS011;25748;46.670;14.272;2022-09-01T08:33:35;2.65;;;1.45;;
38332;SDS011;25748;46.670;14.272;2022-09-01T08:36:08;2.20;;;1.70;;
38332;SDS011;25748;46.670;14.272;2022-09-01T08:38:35;2.03;;;1.57;;
38332;SDS011;25748;46.670;14.272;2022-09-01T08:41:02;2.08;;;1.33;;
38332;SDS011;25748;46.670;14.272;2022-09-01T08:46:12;2.25;;;1.58;;
38332;SDS011;25748;46.670;14.272;2022-09-01T08:48:48;2.95;;;1.20;;
38332;SDS011;25748;46.670;14.272;2022-09-01T08:51:25;1.77;;;1.05;;
38332;SDS011;25748;46.670;14.272;2022-09-01T08:56:26;3.28;;;1.60;;
38332;SDS011;25748;46.670;14.272;2022-09-01T08:58:53;4.65;;;1.23;;
38332;SDS011;25748;46.670;14.272;2022-09-01T09:01:21;2.10;;;1.45;;
38332;SDS011;25748;46.670;14.272;2022-09-01T09:06:44;2.78;;;1.38;;
38332;SDS011;25748;46.670;14.272;2022-09-01T09:09:19;3.03;;;1.10;;
38332;SDS011;25748;46.670;14.272;2022-09-01T09:11:56;1.52;;;1.27;;
38332;SDS011;25748;46.670;14.272;2022-09-01T09:17:13;3.55;;;1.20;;
38332;SDS011;25748;46.670;14.272;2022-09-01T09:19:43;1.80;;;0.95;;
38332;SDS011;25748;46.670;14.272;2022-09-01T09:22:14;2.33;;;1.10;;
38332;SDS011;25748;46.670;14.272;2022-09-01T09:27:21;2.47;;;1.50;;
38332;SDS011;25748;46.670;14.272;2022-09-01T09:29:49;2.88;;;1.42;;
38332;SDS011;25748;46.670;14.272;2022-09-01T09:32:18;1.45;;;1.20;;
38332;SDS011;25748;46.670;14.272;2022-09-01T09:34:45;2.35;;;0.90;;
38332;SDS011;25748;46.670;14.272;2022-09-01T09:42:38;3.10;;;1.17;;
38332;SDS011;25748;46.670;14.272;2022-09-01T09:45:36;3.70;;;1.27;;
38332;SDS011;25748;46.670;14.272;2022-09-01T09:50:53;1.52;;;1.08;;
38332;SDS011;25748;46.670;14.272;2022-09-01T09:53:29;1.30;;;1.08;;
38332;SDS011;25748;46.670;14.272;2022-09-01T09:55:59;3.03;;;1.23;;
38332;SDS011;25748;46.670;14.272;2022-09-01T09:58:47;5.80;;;1.10;;
38332;SDS011;25748;46.670;14.272;2022-09-01T10:03:59;1.95;;;1.15;;
38332;SDS011;25748;46.670;14.272;2022-09-01T10:09:06;2.28;;;1.10;;
38332;SDS011;25748;46.670;14.272;2022-09-01T10:11:40;2.53;;;1.40;;
38332;SDS011;25748;46.670;14.272;2022-09-01T10:14:13;2.72;;;1.60;;
38332;SDS011;25748;46.670;14.272;2022-09-01T10:16:46;2.45;;;1.25;;
38332;SDS011;25748;46.670;14.272;2022-09-01T10:19:17;7.53;;;1.50;;
38332;SDS011;25748;46.670;14.272;2022-09-01T10:21:44;3.00;;;1.50;;
38332;SDS011;25748;46.670;14.272;2022-09-01T10:24:16;2.40;;;1.20;;
38332;SDS011;25748;46.670;14.272;2022-09-01T10:27:09;1.88;;;1.10;;
38332;SDS011;25748;46.670;14.272;2022-09-01T10:32:39;4.63;;;1.80;;
38332;SDS011;25748;46.670;14.272;2022-09-01T10:35:11;2.15;;;1.20;;
38332;SDS011;25748;46.670;14.272;2022-09-01T10:37:42;1.65;;;1.27;;
38332;SDS011;25748;46.670;14.272;2022-09-01T10:42:56;2.10;;;1.30;;
38332;SDS011;25748;46.670;14.272;2022-09-01T10:50:49;2.30;;;1.42;;
38332;SDS011;25748;46.670;14.272;2022-09-01T10:56:05;2.07;;;1.30;;
38332;SDS011;25748;46.670;14.272;2022-09-01T10:58:48;1.50;;;1.20;;
38332;SDS011;25748;46.670;14.272;2022-09-01T11:02:20;2.75;;;1.50;;
38332;SDS011;25748;46.670;14.272;2022-09-01T11:06:59;2.30;;;1.20;;
38332;SDS011;25748;46.670;14.272;2022-09-01T11:09:39;2.03;;;1.08;;
38332;SDS011;25748;46.670;14.272;2022-09-01T11:14:50;2.83;;;1.17;;
38332;SDS011;25748;46.670;14.272;2022-09-01T11:30:15;3.63;;;1.38;;
38332;SDS011;25748;46.670;14.272;2022-09-01T11:32:41;3.45;;;1.42;;
38332;SDS011;25748;46.670;14.272;2022-09-01T11:35:16;2.90;;;1.63;;
38332;SDS011;25748;46.670;14.272;2022-09-01T11:37:50;2.30;;;1.50;;
38332;SDS011;25748;46.670;14.272;2022-09-01T11:40:25;1.80;;;1.40;;
38332;SDS011;25748;46.670;14.272;2022-09-01T11:42:55;1.27;;;1.10;;
38332;SDS011;25748;46.670;14.272;2022-09-01T11:45:28;2.25;;;1.58;;
38332;SDS011;25748;46.670;14.272;2022-09-01T11:47:59;2.83;;;1.60;;
38332;SDS011;25748;46.670;14.272;2022-09-01T11:50:31;2.15;;;1.38;;
38332;SDS011;25748;46.670;14.272;2022-09-01T11:53:06;3.25;;;1.55;;
38332;SDS011;25748;46.670;14.272;2022-09-01T11:55:36;2.22;;;1.05;;
38332;SDS011;25748;46.670;14.272;2022-09-01T11:58:05;3.25;;;1.35;;
38332;SDS011;25748;46.670;14.272;2022-09-01T12:00:35;2.17;;;1.40;;
38332;SDS011;25748;46.670;14.272;2022-09-01T12:03:16;1.58;;;1.23;;
38332;SDS011;25748;46.670;14.272;2022-09-01T12:06:03;1.85;;;1.35;;
38332;SDS011;25748;46.670;14.272;2022-09-01T12:08:41;1.63;;;1.20;;
38332;SDS011;25748;46.670;14.272;2022-09-01T12:11:19;2.97;;;1.58;;
38332;SDS011;25748;46.670;14.272;2022-09-01T12:14:00;3.28;;;1.40;;
38332;SDS011;25748;46.670;14.272;2022-09-01T12:16:31;1.75;;;1.30;;
38332;SDS011;25748;46.670;14.272;2022-09-01T12:19:00;1.65;;;1.33;;
38332;SDS011;25748;46.670;14.272;2022-09-01T12:21:27;3.03;;;1.25;;
38332;SDS011;25748;46.670;14.272;2022-09-01T12:24:00;2.13;;;1.30;;
38332;SDS011;25748;46.670;14.272;2022-09-01T12:26:36;2.42;;;1.60;;
38332;SDS011;25748;46.670;14.272;2022-09-01T12:29:03;3.28;;;1.60;;
38332;SDS011;25748;46.670;14.272;2022-09-01T12:31:31;3.65;;;1.40;;
38332;SDS011;25748;46.670;14.272;2022-09-01T12:33:57;1.58;;;1.17;;
38332;SDS011;25748;46.670;14.272;2022-09-01T12:36:27;2.85;;;1.60;;
38332;SDS011;25748;46.670;14.272;2022-09-01T12:39:20;3.05;;;1.50;;
38332;SDS011;25748;46.670;14.272;2022-09-01T12:44:44;1.55;;;1.20;;
38332;SDS011;25748;46.670;14.272;2022-09-01T12:47:42;1.92;;;1.50;;
38332;SDS011;25748;46.670;14.272;2022-09-01T12:50:07;1.88;;;1.40;;
38332;SDS011;25748;46.670;14.272;2022-09-01T12:55:17;2.47;;;1.60;;
38332;SDS011;25748;46.670;14.272;2022-09-01T12:57:52;3.95;;;1.35;;
38332;SDS011;25748;46.670;14.272;2022-09-01T13:00:25;3.47;;;1.63;;
38332;SDS011;25748;46.670;14.272;2022-09-01T13:05:38;3.17;;;1.70;;
38332;SDS011;25748;46.670;14.272;2022-09-01T13:08:08;2.80;;;1.33;;
38332;SDS011;25748;46.670;14.272;2022-09-01T13:10:38;2.20;;;1.52;;
38332;SDS011;25748;46.670;14.272;2022-09-01T13:13:14;1.55;;;1.25;;
38332;SDS011;25748;46.670;14.272;2022-09-01T13:15:42;2.08;;;1.10;;
38332;SDS011;25748;46.670;14.272;2022-09-01T13:18:12;1.73;;;1.47;;
38332;SDS011;25748;46.670;14.272;2022-09-01T13:20:38;2.53;;;1.80;;
38332;SDS011;25748;46.670;14.272;2022-09-01T13:23:05;2.05;;;1.60;;
38332;SDS011;25748;46.670;14.272;2022-09-01T13:25:32;3.35;;;1.92;;
38332;SDS011;25748;46.670;14.272;2022-09-01T13:27:57;3.80;;;1.67;;
38332;SDS011;25748;46.670;14.272;2022-09-01T13:30:26;3.13;;;2.00;;
38332;SDS011;25748;46.670;14.272;2022-09-01T13:32:54;2.15;;;1.52;;
38332;SDS011;25748;46.670;14.272;2022-09-01T13:35:22;3.08;;;1.40;;
38332;SDS011;25748;46.670;14.272;2022-09-01T13:37:48;4.65;;;1.35;;
38332;SDS011;25748;46.670;14.272;2022-09-01T13:40:15;1.85;;;1.33;;
38332;SDS011;25748;46.670;14.272;2022-09-01T13:42:42;2.28;;;1.45;;
38332;SDS011;25748;46.670;14.272;2022-09-01T13:45:12;2.38;;;1.60;;
38332;SDS011;25748;46.670;14.272;2022-09-01T13:47:41;2.13;;;1.45;;
38332;SDS011;25748;46.670;14.272;2022-09-01T13:50:08;2.10;;;1.60;;
38332;SDS011;25748;46.670;14.272;2022-09-01T13:52:35;5.93;;;1.60;;
38332;SDS011;25748;46.670;14.272;2022-09-01T13:55:03;2.53;;;1.67;;
38332;SDS011;25748;46.670;14.272;2022-09-01T13:57:29;2.22;;;1.50;;
38332;SDS011;25748;46.670;14.272;2022-09-01T13:59:55;2.53;;;1.23;;
38332;SDS011;25748;46.670;14.272;2022-09-01T14:02:21;3.50;;;1.60;;
38332;SDS011;25748;46.670;14.272;2022-09-01T14:04:47;1.67;;;1.30;;
38332;SDS011;25748;46.670;14.272;2022-09-01T14:07:12;1.40;;;1.02;;
38332;SDS011;25748;46.670;14.272;2022-09-01T14:09:40;2.15;;;1.70;;
38332;SDS011;25748;46.670;14.272;2022-09-01T14:12:05;1.67;;;1.20;;
38332;SDS011;25748;46.670;14.272;2022-09-01T14:14:32;2.17;;;1.52;;
38332;SDS011;25748;46.670;14.272;2022-09-01T14:16:58;2.60;;;1.60;;
38332;SDS011;25748;46.670;14.272;2022-09-01T14:19:24;1.58;;;1.25;;
38332;SDS011;25748;46.670;14.272;2022-09-01T14:21:50;2.08;;;1.38;;
38332;SDS011;25748;46.670;14.272;2022-09-01T14:24:15;4.80;;;1.60;;
38332;SDS011;25748;46.670;14.272;2022-09-01T14:26:44;1.90;;;1.58;;
38332;SDS011;25748;46.670;14.272;2022-09-01T14:29:10;2.92;;;1.50;;
38332;SDS011;25748;46.670;14.272;2022-09-01T14:31:35;3.45;;;1.58;;
38332;SDS011;25748;46.670;14.272;2022-09-01T14:34:02;4.95;;;1.33;;
38332;SDS011;25748;46.670;14.272;2022-09-01T14:36:28;4.60;;;1.30;;
38332;SDS011;25748;46.670;14.272;2022-09-01T14:38:55;2.22;;;1.27;;
38332;SDS011;25748;46.670;14.272;2022-09-01T14:41:21;5.90;;;1.77;;
38332;SDS011;25748;46.670;14.272;2022-09-01T14:43:52;2.88;;;1.42;;
38332;SDS011;25748;46.670;14.272;2022-09-01T14:46:19;1.55;;;1.23;;
38332;SDS011;25748;46.670;14.272;2022-09-01T14:48:46;5.18;;;1.65;;
38332;SDS011;25748;46.670;14.272;2022-09-01T14:51:26;1.70;;;1.40;;
38332;SDS011;25748;46.670;14.272;2022-09-01T14:53:53;2.00;;;1.80;;
38332;SDS011;25748;46.670;14.272;2022-09-01T14:56:20;2.03;;;1.40;;
38332;SDS011;25748;46.670;14.272;2022-09-01T14:58:47;1.50;;;1.30;;
38332;SDS011;25748;46.670;14.272;2022-09-01T15:01:14;2.08;;;1.52;;
38332;SDS011;25748;46.670;14.272;2022-09-01T15:03:42;2.10;;;1.75;;
38332;SDS011;25748;46.670;14.272;2022-09-01T15:06:10;2.13;;;1.70;;
38332;SDS011;25748;46.670;14.272;2022-09-01T15:08:38;1.85;;;1.52;;
38332;SDS011;25748;46.670;14.272;2022-09-01T15:11:10;2.53;;;1.48;;
38332;SDS011;25748;46.670;14.272;2022-09-01T15:13:38;1.77;;;1.27;;
38332;SDS011;25748;46.670;14.272;2022-09-01T15:16:12;5.07;;;1.60;;
38332;SDS011;25748;46.670;14.272;2022-09-01T15:18:43;1.08;;;0.95;;
38332;SDS011;25748;46.670;14.272;2022-09-01T15:21:16;1.98;;;1.23;;
38332;SDS011;25748;46.670;14.272;2022-09-01T15:23:48;2.15;;;1.35;;
38332;SDS011;25748;46.670;14.272;2022-09-01T15:26:14;2.83;;;1.67;;
38332;SDS011;25748;46.670;14.272;2022-09-01T15:28:41;2.13;;;1.48;;
38332;SDS011;25748;46.670;14.272;2022-09-01T15:31:08;3.05;;;1.40;;
38332;SDS011;25748;46.670;14.272;2022-09-01T15:33:35;1.80;;;1.45;;
38332;SDS011;25748;46.670;14.272;2022-09-01T15:36:00;3.50;;;1.33;;
38332;SDS011;25748;46.670;14.272;2022-09-01T15:38:26;1.88;;;1.25;;
38332;SDS011;25748;46.670;14.272;2022-09-01T15:40:52;4.93;;;1.52;;
38332;SDS011;25748;46.670;14.272;2022-09-01T15:43:19;1.95;;;1.27;;
38332;SDS011;25748;46.670;14.272;2022-09-01T15:45:46;6.95;;;1.58;;
38332;SDS011;25748;46.670;14.272;2022-09-01T15:48:12;2.97;;;1.60;;
38332;SDS011;25748;46.670;14.272;2022-09-01T15:50:38;1.80;;;1.38;;
38332;SDS011;25748;46.670;14.272;2022-09-01T15:53:04;5.80;;;1.55;;
38332;SDS011;25748;46.670;14.272;2022-09-01T15:58:12;2.67;;;1.58;;
38332;SDS011;25748;46.670;14.272;2022-09-01T16:00:39;4.18;;;1.20;;
38332;SDS011;25748;46.670;14.272;2022-09-01T16:03:06;2.15;;;1.38;;